createdAt,value
2019-05-22T00:02:00.807Z,87.70
2019-05-22T00:04:29.560Z,87.70
2019-05-22T00:06:58.315Z,87.90
2019-05-22T00:09:27.385Z,87.80
2019-05-22T00:11:56.104Z,89.00
2019-05-22T00:14:24.870Z,87.90
2019-05-22T00:19:40.587Z,88.30
2019-05-22T00:22:12.347Z,88.30
2019-05-22T00:24:41.587Z,88.70
2019-05-22T00:27:10.911Z,89.80
2019-05-22T00:29:39.143Z,90.10
2019-05-22T00:32:07.896Z,88.90
2019-05-22T00:34:35.717Z,88.70
2019-05-22T00:37:02.575Z,88.70
2019-05-22T00:39:30.131Z,88.60
2019-05-22T00:41:57.958Z,88.50
2019-05-22T00:44:25.403Z,88.40
2019-05-22T00:46:52.883Z,88.90
2019-05-22T00:49:21.630Z,89.50
2019-05-22T00:52:03.324Z,89.30
2019-05-22T00:54:44.369Z,90.40
2019-05-22T00:57:13.173Z,89.10
2019-05-22T00:59:49.239Z,89.10
2019-05-22T01:02:16.563Z,87.50
2019-05-22T01:04:43.413Z,87.80
2019-05-22T01:07:12.227Z,87.90
2019-05-22T01:09:41.286Z,88.10
2019-05-22T01:15:15.338Z,88.20
2019-05-22T01:17:44.083Z,89.10
2019-05-22T01:20:13.330Z,88.30
2019-05-22T01:22:42.070Z,90.00
2019-05-22T01:25:10.805Z,88.40
2019-05-22T01:27:38.591Z,88.60
2019-05-22T01:30:07.323Z,88.70
2019-05-22T01:32:38.993Z,88.70
2019-05-22T01:35:06.820Z,89.60
2019-05-22T01:37:34.264Z,90.40
2019-05-22T01:40:04.023Z,89.40
2019-05-22T01:42:33.140Z,89.60
2019-05-22T01:45:06.549Z,90.40
2019-05-22T01:47:40.030Z,89.40
2019-05-22T01:50:07.456Z,91.30
2019-05-22T01:52:35.909Z,90.40
2019-05-22T01:55:04.527Z,90.00
2019-05-22T01:57:32.387Z,90.40
2019-05-22T01:59:59.352Z,89.60
2019-05-22T02:02:28.111Z,88.70
2019-05-22T02:04:55.647Z,88.60
2019-05-22T02:07:22.664Z,88.90
2019-05-22T02:09:51.411Z,89.10
2019-05-22T02:12:43.876Z,89.20
2019-05-22T02:18:59.488Z,93.70
2019-05-22T02:21:26.965Z,90.80
2019-05-22T02:23:54.013Z,87.10
2019-05-22T02:26:21.723Z,88.00
2019-05-22T02:28:48.696Z,87.30
2019-05-22T02:31:17.465Z,86.80
2019-05-22T02:34:04.280Z,86.20
2019-05-22T02:36:32.427Z,87.20
2019-05-22T02:39:00.865Z,87.20
2019-05-22T02:41:52.861Z,87.30
2019-05-22T02:44:20.633Z,90.70
2019-05-22T02:46:48.381Z,87.80
2019-05-22T02:49:16.802Z,90.00
2019-05-22T02:51:44.260Z,89.30
2019-05-22T02:54:11.699Z,88.10
2019-05-22T02:56:39.148Z,88.90
2019-05-22T02:59:07.182Z,89.10
2019-05-22T03:01:34.712Z,90.20
2019-05-22T03:04:02.240Z,86.90
2019-05-22T03:06:29.182Z,88.00
2019-05-22T03:09:03.383Z,84.40
2019-05-22T03:11:35.346Z,87.40
2019-05-22T03:14:04.064Z,85.20
2019-05-22T03:16:50.697Z,83.00
2019-05-22T03:19:22.516Z,85.00
2019-05-22T03:21:49.450Z,82.60
2019-05-22T03:24:16.771Z,82.10
2019-05-22T03:26:47.636Z,81.40
2019-05-22T03:29:15.274Z,82.60
2019-05-22T03:31:42.812Z,82.30
2019-05-22T03:34:29.377Z,81.70
2019-05-22T03:36:56.815Z,80.00
2019-05-22T03:39:23.731Z,80.10
2019-05-22T03:41:51.686Z,79.90
2019-05-22T03:44:18.491Z,79.80
2019-05-22T03:46:45.739Z,79.70
2019-05-22T03:49:29.292Z,79.30
2019-05-22T03:51:45.307Z,79.10
2019-05-22T03:54:12.142Z,80.00
2019-05-22T03:56:39.192Z,79.70
2019-05-22T03:59:07.024Z,79.70
2019-05-22T04:01:33.960Z,78.80
2019-05-22T04:04:02.111Z,78.90
2019-05-22T04:06:29.433Z,80.10
2019-05-22T04:08:56.263Z,79.60
2019-05-22T04:11:26.587Z,79.20
2019-05-22T04:13:53.633Z,80.50
2019-05-22T04:16:22.343Z,77.30
2019-05-22T04:18:49.784Z,79.80
2019-05-22T04:21:16.915Z,78.30
2019-05-22T04:23:44.056Z,78.00
2019-05-22T04:26:12.400Z,77.40
2019-05-22T04:28:47.895Z,76.30
2019-05-22T04:31:15.604Z,79.00
2019-05-22T04:33:43.372Z,79.50
2019-05-22T04:36:30.037Z,77.60
2019-05-22T04:38:58.274Z,78.90
2019-05-22T04:41:25.076Z,75.40
2019-05-22T04:43:53.211Z,76.60
2019-05-22T04:46:20.032Z,78.40
2019-05-22T04:48:47.027Z,77.80
2019-05-22T04:51:19.938Z,78.70
2019-05-22T04:53:47.820Z,82.80
2019-05-22T04:56:14.760Z,79.00
2019-05-22T04:58:41.714Z,79.60
2019-05-22T05:01:08.655Z,78.60
2019-05-22T05:03:36.492Z,78.90
2019-05-22T05:06:06.659Z,79.40
2019-05-22T05:08:32.167Z,77.40
2019-05-22T05:11:00.919Z,77.90
2019-05-22T05:13:27.757Z,77.80
2019-05-22T05:15:54.592Z,79.00
2019-05-22T05:18:21.528Z,77.80
2019-05-22T05:20:48.347Z,78.30
2019-05-22T05:23:15.275Z,79.30
2019-05-22T05:25:43.026Z,78.80
2019-05-22T05:28:11.383Z,80.10
2019-05-22T05:30:38.519Z,79.20
2019-05-22T05:33:06.348Z,79.20
2019-05-22T05:35:34.687Z,80.10
2019-05-22T05:38:01.647Z,79.50
2019-05-22T05:40:31.176Z,81.10
2019-05-22T05:42:59.547Z,82.50
2019-05-22T05:45:26.568Z,82.60
2019-05-22T05:47:55.804Z,81.20
2019-05-22T05:50:38.368Z,82.40
2019-05-22T05:52:55.119Z,81.00
2019-05-22T05:56:00.387Z,81.50
2019-05-22T05:58:28.241Z,81.50
2019-05-22T06:01:04.476Z,80.30
2019-05-22T06:03:33.293Z,82.50
2019-05-22T06:06:22.849Z,82.50
2019-05-22T06:08:50.198Z,81.50
2019-05-22T06:11:39.093Z,81.20
2019-05-22T06:14:08.245Z,85.20
2019-05-22T06:16:51.852Z,84.60
2019-05-22T06:19:19.491Z,87.30
2019-05-22T06:21:48.212Z,84.60
2019-05-22T06:24:34.917Z,85.50
2019-05-22T06:27:15.711Z,87.80
2019-05-22T06:29:47.073Z,89.20
2019-05-22T06:32:51.008Z,86.30
2019-05-22T06:35:18.561Z,88.30
2019-05-22T06:38:08.767Z,85.90
2019-05-22T06:40:35.742Z,88.80
2019-05-22T06:43:24.179Z,85.90
2019-05-22T06:45:52.631Z,89.10
2019-05-22T06:48:19.580Z,87.30
2019-05-22T06:50:49.307Z,85.70
2019-05-22T06:53:15.547Z,85.20
2019-05-22T06:55:42.512Z,84.10
2019-05-22T06:58:09.327Z,82.90
2019-05-22T07:00:37.071Z,82.60
2019-05-22T07:03:04.813Z,83.60
2019-05-22T07:05:32.232Z,83.40
2019-05-22T07:08:00.476Z,83.10
2019-05-22T07:10:28.115Z,84.80
2019-05-22T07:12:57.242Z,85.10
2019-05-22T07:15:29.952Z,85.80
2019-05-22T07:17:57.189Z,86.00
2019-05-22T07:20:24.424Z,85.30
2019-05-22T07:22:51.648Z,85.60
2019-05-22T07:25:18.580Z,85.40
2019-05-22T07:27:45.524Z,84.50
2019-05-22T07:30:12.451Z,84.70
2019-05-22T07:32:39.696Z,84.30
2019-05-22T07:35:07.246Z,83.80
2019-05-22T07:37:38.604Z,85.00
2019-05-22T07:40:06.229Z,85.00
2019-05-22T07:42:33.965Z,85.40
2019-05-22T07:45:00.913Z,82.70
2019-05-22T07:47:28.285Z,81.80
2019-05-22T07:49:55.101Z,83.80
2019-05-22T07:52:22.148Z,82.10
2019-05-22T07:54:50.607Z,81.90
2019-05-22T07:57:20.680Z,85.10
2019-05-22T07:59:47.931Z,77.20
2019-05-22T08:02:14.979Z,73.80
2019-05-22T08:04:42.644Z,72.60
2019-05-22T08:07:10.420Z,70.20
2019-05-22T08:09:38.053Z,70.20
2019-05-22T08:12:05.892Z,70.90
2019-05-22T08:14:32.827Z,71.50
2019-05-22T08:16:59.993Z,70.90
2019-05-22T08:19:26.981Z,71.40
2019-05-22T08:22:06.167Z,72.00
2019-05-22T08:24:22.652Z,70.50
2019-05-22T08:26:54.509Z,71.50
2019-05-22T08:29:18.230Z,70.90
2019-05-22T08:31:45.831Z,71.30
2019-05-22T08:34:12.767Z,71.80
2019-05-22T08:36:39.715Z,69.50
2019-05-22T08:39:08.261Z,70.00
2019-05-22T08:41:37.587Z,68.20
2019-05-22T08:44:16.061Z,70.50
2019-05-22T08:46:35.243Z,69.40
2019-05-22T08:49:02.665Z,69.90
2019-05-22T08:51:29.598Z,71.60
2019-05-22T08:53:57.520Z,69.40
2019-05-22T08:56:24.545Z,65.90
2019-05-22T08:58:51.498Z,65.20
2019-05-22T09:04:06.916Z,64.60
2019-05-22T09:06:33.827Z,62.70
2019-05-22T09:09:00.790Z,60.50
2019-05-22T09:11:27.675Z,60.70
2019-05-22T09:13:54.598Z,59.80
2019-05-22T09:16:21.979Z,58.90
2019-05-22T09:18:48.781Z,58.40
2019-05-22T09:21:16.242Z,59.00
2019-05-22T09:23:43.948Z,60.30
2019-05-22T09:26:10.778Z,58.30
2019-05-22T09:28:37.595Z,56.00
2019-05-22T09:31:05.620Z,54.90
2019-05-22T09:33:33.497Z,52.40
2019-05-22T09:36:00.294Z,53.90
2019-05-22T09:38:27.899Z,54.50
2019-05-22T09:40:54.841Z,52.50
2019-05-22T09:43:21.807Z,51.90
2019-05-22T09:45:48.751Z,52.80
2019-05-22T09:48:16.986Z,53.90
2019-05-22T09:50:43.924Z,52.20
2019-05-22T09:53:10.847Z,51.80
2019-05-22T09:55:37.901Z,52.60
2019-05-22T09:58:05.310Z,50.50
2019-05-22T10:00:32.250Z,51.00
2019-05-22T10:03:00.167Z,49.70
2019-05-22T10:05:27.719Z,50.90
2019-05-22T10:08:01.124Z,47.90
2019-05-22T10:10:26.320Z,50.50
2019-05-22T10:12:53.355Z,50.80
2019-05-22T10:15:20.619Z,51.20
2019-05-22T10:17:47.605Z,48.70
2019-05-22T10:20:14.696Z,50.90
2019-05-22T10:22:42.615Z,52.70
2019-05-22T10:25:15.422Z,52.10
2019-05-22T10:27:38.760Z,50.40
2019-05-22T10:30:16.053Z,50.80
2019-05-22T10:32:43.071Z,53.30
2019-05-22T10:35:10.723Z,51.70
2019-05-22T10:37:37.641Z,53.30
2019-05-22T10:40:04.493Z,54.50
2019-05-22T10:42:31.820Z,49.60
2019-05-22T10:44:58.747Z,51.80
2019-05-22T10:47:25.791Z,47.40
2019-05-22T10:49:53.923Z,45.50
2019-05-22T10:52:20.986Z,48.10
2019-05-22T10:54:47.890Z,44.90
2019-05-22T10:57:15.352Z,48.70
2019-05-22T10:59:42.217Z,44.50
2019-05-22T11:02:09.315Z,45.30
2019-05-22T11:04:37.452Z,46.70
2019-05-22T11:07:04.392Z,45.40
2019-05-22T11:09:31.719Z,43.60
2019-05-22T11:11:58.759Z,45.50
2019-05-22T11:14:25.810Z,44.10
2019-05-22T11:16:53.200Z,43.70
2019-05-22T11:19:20.578Z,43.30
2019-05-22T11:21:47.431Z,40.40
2019-05-22T11:24:14.505Z,42.30
2019-05-22T11:26:41.343Z,52.80
2019-05-22T11:29:08.296Z,45.90
2019-05-22T11:31:36.013Z,43.90
2019-05-22T11:34:03.864Z,44.40
2019-05-22T11:36:31.271Z,43.50
2019-05-22T11:38:59.115Z,44.50
2019-05-22T11:41:25.938Z,45.60
2019-05-22T11:43:52.985Z,47.10
2019-05-22T11:46:20.215Z,48.00
2019-05-22T11:48:47.646Z,44.50
2019-05-22T11:51:14.777Z,42.80
2019-05-22T11:53:41.995Z,43.00
2019-05-22T11:56:08.951Z,41.90
2019-05-22T11:58:35.818Z,41.40
2019-05-22T12:01:03.358Z,39.30
2019-05-22T12:03:30.286Z,37.50
2019-05-22T12:05:57.110Z,42.90
2019-05-22T12:08:24.059Z,38.40
2019-05-22T12:10:51.240Z,39.00
2019-05-22T12:13:18.233Z,38.60
2019-05-22T12:15:45.202Z,41.00
2019-05-22T12:18:12.865Z,40.20
2019-05-22T12:20:39.864Z,42.40
2019-05-22T12:23:06.687Z,43.00
2019-05-22T12:25:33.640Z,42.80
2019-05-22T12:28:00.563Z,41.00
2019-05-22T12:30:27.406Z,44.10
2019-05-22T12:32:54.843Z,37.70
2019-05-22T12:35:21.684Z,50.10
2019-05-22T12:37:48.652Z,36.60
2019-05-22T12:40:18.859Z,35.80
2019-05-22T12:42:46.602Z,42.60
2019-05-22T12:45:13.932Z,44.30
2019-05-22T12:47:42.699Z,44.20
2019-05-22T12:50:12.241Z,42.80
2019-05-22T12:52:39.095Z,38.60
2019-05-22T12:55:06.249Z,38.30
2019-05-22T12:57:33.183Z,41.20
2019-05-22T13:00:02.545Z,39.90
2019-05-22T13:02:29.487Z,43.80
2019-05-22T13:04:58.171Z,45.80
2019-05-22T13:07:26.024Z,46.60
2019-05-22T13:09:53.006Z,50.00
2019-05-22T13:12:19.820Z,49.80
2019-05-22T13:14:46.766Z,51.50
2019-05-22T13:17:15.206Z,51.60
2019-05-22T13:19:42.203Z,50.30
2019-05-22T13:22:14.988Z,51.90
2019-05-22T13:24:41.936Z,53.40
2019-05-22T13:27:10.686Z,53.70
2019-05-22T13:29:38.903Z,49.30
2019-05-22T13:32:06.246Z,49.90
2019-05-22T13:34:34.258Z,48.50
2019-05-22T13:37:01.955Z,46.60
2019-05-22T13:39:28.919Z,45.60
2019-05-22T13:41:55.792Z,45.70
2019-05-22T13:44:23.317Z,46.40
2019-05-22T13:46:50.662Z,45.70
2019-05-22T13:49:17.531Z,45.10
2019-05-22T13:51:46.295Z,48.50
2019-05-22T13:54:13.223Z,46.60
2019-05-22T13:56:40.212Z,45.50
2019-05-22T13:59:07.107Z,45.20
2019-05-22T14:01:34.155Z,49.20
2019-05-22T14:04:02.343Z,49.70
2019-05-22T14:06:29.293Z,49.60
2019-05-22T14:08:56.688Z,49.30
2019-05-22T14:11:24.832Z,50.40
2019-05-22T14:13:52.539Z,51.80
2019-05-22T14:16:20.319Z,53.50
2019-05-22T14:18:47.151Z,56.50
2019-05-22T14:21:14.117Z,53.10
2019-05-22T14:23:41.059Z,53.40
2019-05-22T14:26:07.983Z,53.10
2019-05-22T14:28:35.665Z,54.70
2019-05-22T14:31:02.912Z,54.30
2019-05-22T14:33:29.768Z,54.10
2019-05-22T14:35:56.732Z,55.50
2019-05-22T14:38:24.383Z,53.30
2019-05-22T14:40:51.229Z,54.20
2019-05-22T14:43:18.191Z,54.80
2019-05-22T14:45:46.347Z,53.20
2019-05-22T14:48:13.904Z,51.80
2019-05-22T14:50:40.827Z,52.80
2019-05-22T14:53:07.877Z,52.00
2019-05-22T14:55:36.608Z,54.00
2019-05-22T14:58:07.131Z,57.20
2019-05-22T15:00:35.867Z,55.10
2019-05-22T15:03:03.453Z,55.40
2019-05-22T15:05:30.976Z,56.10
2019-05-22T15:07:57.924Z,55.90
2019-05-22T15:10:26.275Z,56.60
2019-05-22T15:12:53.206Z,56.10
2019-05-22T15:15:21.567Z,56.90
2019-05-22T15:17:48.728Z,56.70
2019-05-22T15:20:18.495Z,56.00
2019-05-22T15:22:45.425Z,56.30
2019-05-22T15:25:12.871Z,55.90
2019-05-22T15:27:39.887Z,56.10
2019-05-22T15:30:08.741Z,55.80
2019-05-22T15:32:36.781Z,55.70
2019-05-22T15:35:07.591Z,54.70
2019-05-22T15:37:35.332Z,56.40
2019-05-22T15:40:03.392Z,54.30
2019-05-22T15:42:39.431Z,54.60
2019-05-22T15:45:26.879Z,57.50
2019-05-22T15:47:57.099Z,55.50
2019-05-22T15:50:27.338Z,56.20
2019-05-22T15:52:55.194Z,59.30
2019-05-22T15:55:22.897Z,56.00
2019-05-22T15:57:50.316Z,56.10
2019-05-22T16:00:18.678Z,55.00
2019-05-22T16:02:46.608Z,57.10
2019-05-22T16:05:13.667Z,57.00
2019-05-22T16:07:40.659Z,55.90
2019-05-22T16:10:07.563Z,55.40
2019-05-22T16:12:35.397Z,55.40
2019-05-22T16:15:05.520Z,56.10
2019-05-22T16:17:32.777Z,56.80
2019-05-22T16:19:59.603Z,55.90
2019-05-22T16:22:26.588Z,54.90
2019-05-22T16:24:53.674Z,55.40
2019-05-22T16:27:20.679Z,55.60
2019-05-22T16:29:47.501Z,54.50
2019-05-22T16:32:15.952Z,55.50
2019-05-22T16:34:42.784Z,55.30
2019-05-22T16:37:09.917Z,54.80
2019-05-22T16:39:37.354Z,55.00
2019-05-22T16:42:05.499Z,54.90
2019-05-22T16:47:01.035Z,58.90
2019-05-22T16:49:28.108Z,54.80
2019-05-22T16:51:55.954Z,53.80
2019-05-22T16:54:24.938Z,54.40
2019-05-22T16:56:51.783Z,54.60
2019-05-22T16:59:18.803Z,54.50
2019-05-22T17:01:58.591Z,54.00
2019-05-22T17:04:14.304Z,54.20
2019-05-22T17:06:42.153Z,54.50
2019-05-22T17:09:09.010Z,54.10
2019-05-22T17:11:36.192Z,54.30
2019-05-22T17:14:04.062Z,55.50
2019-05-22T17:16:32.788Z,55.90
2019-05-22T17:18:59.720Z,55.50
2019-05-22T17:21:27.088Z,55.90
2019-05-22T17:23:54.313Z,56.60
2019-05-22T17:26:21.452Z,56.40
2019-05-22T17:28:48.415Z,56.20
2019-05-22T17:31:15.355Z,57.30
2019-05-22T17:33:42.854Z,57.20
2019-05-22T17:36:11.576Z,56.90
2019-05-22T17:38:38.756Z,56.90
2019-05-22T17:41:06.280Z,57.30
2019-05-22T17:43:34.646Z,57.90
2019-05-22T17:46:01.499Z,61.00
2019-05-22T17:48:29.556Z,62.10
2019-05-22T17:50:56.392Z,61.50
2019-05-22T17:53:23.534Z,58.60
2019-05-22T17:55:50.564Z,59.20
2019-05-22T17:58:17.913Z,60.00
2019-05-22T18:00:46.657Z,61.40
2019-05-22T18:03:13.992Z,61.00
2019-05-22T18:05:41.995Z,65.00
2019-05-22T18:08:08.980Z,65.60
2019-05-22T18:10:40.311Z,66.80
2019-05-22T18:13:07.483Z,68.10
2019-05-22T18:15:34.735Z,68.80
2019-05-22T18:18:01.650Z,67.80
2019-05-22T18:20:41.743Z,68.70
2019-05-22T18:22:59.607Z,68.80
2019-05-22T18:25:26.973Z,69.20
2019-05-22T18:27:54.101Z,69.80
2019-05-22T18:30:22.543Z,69.70
2019-05-22T18:32:49.480Z,69.80
2019-05-22T18:35:17.139Z,70.10
2019-05-22T18:37:44.093Z,69.90
2019-05-22T18:40:10.999Z,69.70
2019-05-22T18:42:38.512Z,70.30
2019-05-22T18:45:06.785Z,70.20
2019-05-22T18:47:34.515Z,71.00
2019-05-22T18:50:01.763Z,71.00
2019-05-22T18:52:40.499Z,69.80
2019-05-22T18:55:17.390Z,69.70
2019-05-22T18:57:44.830Z,69.90
2019-05-22T19:00:11.756Z,69.70
2019-05-22T19:02:38.637Z,69.70
2019-05-22T19:05:05.584Z,69.80
2019-05-22T19:07:33.010Z,70.10
2019-05-22T19:09:59.951Z,69.90
2019-05-22T19:12:26.891Z,69.90
2019-05-22T19:14:53.859Z,70.40
2019-05-22T19:17:20.792Z,70.40
2019-05-22T19:19:48.581Z,70.30
2019-05-22T19:22:15.787Z,70.30
2019-05-22T19:24:42.950Z,70.30
2019-05-22T19:27:10.155Z,70.70
2019-05-22T19:29:37.269Z,70.20
2019-05-22T19:32:04.197Z,70.70
2019-05-22T19:34:31.037Z,70.90
2019-05-22T19:36:57.863Z,71.20
2019-05-22T19:39:25.106Z,71.00
2019-05-22T19:42:02.074Z,71.10
2019-05-22T19:44:21.289Z,71.10
2019-05-22T19:46:49.007Z,71.30
2019-05-22T19:49:16.873Z,71.30
2019-05-22T19:51:44.603Z,71.20
2019-05-22T19:54:11.571Z,71.20
2019-05-22T19:56:38.895Z,70.80
2019-05-22T19:59:06.175Z,71.00
2019-05-22T20:01:34.977Z,71.50
2019-05-22T20:04:02.809Z,71.90
2019-05-22T20:06:30.577Z,72.20
2019-05-22T20:08:58.643Z,71.90
2019-05-22T20:11:26.095Z,72.10
2019-05-22T20:13:53.540Z,71.70
2019-05-22T20:16:20.706Z,71.60
2019-05-22T20:18:48.074Z,71.50
2019-05-22T20:21:15.785Z,71.70
2019-05-22T20:23:43.029Z,72.00
2019-05-22T20:26:11.135Z,71.60
2019-05-22T20:28:39.615Z,72.10
2019-05-22T20:31:07.858Z,72.40
2019-05-22T20:33:34.885Z,72.50
2019-05-22T20:36:01.908Z,72.90
2019-05-22T20:38:29.092Z,72.60
2019-05-22T20:40:56.076Z,72.80
2019-05-22T20:43:23.227Z,72.70
2019-05-22T20:45:50.364Z,72.40
2019-05-22T20:48:25.539Z,78.60
2019-05-22T20:50:55.049Z,75.50
2019-05-22T20:53:21.774Z,74.10
2019-05-22T20:55:49.115Z,73.90
2019-05-22T20:58:17.427Z,73.50
2019-05-22T21:00:44.966Z,74.20
2019-05-22T21:03:13.728Z,73.70
2019-05-22T21:05:42.718Z,73.20
2019-05-22T21:08:11.290Z,73.00
2019-05-22T21:10:43.631Z,74.00
2019-05-22T21:13:12.780Z,74.50
2019-05-22T21:15:54.477Z,73.90
2019-05-22T21:18:23.220Z,73.80
2019-05-22T21:20:55.122Z,73.60
2019-05-22T21:23:20.378Z,73.90
2019-05-22T21:25:47.302Z,74.40
2019-05-22T21:28:14.149Z,74.50
2019-05-22T21:30:42.376Z,74.80
2019-05-22T21:33:09.427Z,81.00
2019-05-22T21:35:37.003Z,75.70
2019-05-22T21:38:03.811Z,75.80
2019-05-22T21:40:30.754Z,76.00
2019-05-22T21:42:57.689Z,76.20
2019-05-22T21:45:25.327Z,76.30
2019-05-22T21:47:53.788Z,76.80
2019-05-22T21:50:21.436Z,77.40
2019-05-22T21:52:48.384Z,76.80
2019-05-22T21:55:15.732Z,77.00
2019-05-22T21:57:43.225Z,77.40
2019-05-22T22:03:20.487Z,80.90
2019-05-22T22:05:47.624Z,78.40
2019-05-22T22:08:28.883Z,78.60
2019-05-22T22:10:55.746Z,78.80
2019-05-22T22:13:22.571Z,79.10
2019-05-22T22:15:50.112Z,79.30
2019-05-22T22:21:09.059Z,80.00
2019-05-22T22:23:37.020Z,80.00
2019-05-22T22:26:23.225Z,80.00
2019-05-22T22:28:33.719Z,80.40
2019-05-22T22:31:05.721Z,80.80
2019-05-22T22:33:32.687Z,81.70
2019-05-22T22:36:00.788Z,80.90
2019-05-22T22:38:28.511Z,81.00
2019-05-22T22:40:56.851Z,80.50
2019-05-22T22:43:29.840Z,80.80
2019-05-22T22:45:58.667Z,83.50
2019-05-22T22:48:27.431Z,80.60
2019-05-22T22:50:55.265Z,80.60
2019-05-22T22:53:22.439Z,80.30
2019-05-22T22:55:49.352Z,80.50
2019-05-22T22:58:17.823Z,80.80
2019-05-22T23:00:46.758Z,82.10
2019-05-22T23:03:17.798Z,81.00
2019-05-22T23:05:47.228Z,82.10
2019-05-22T23:08:20.494Z,81.40
2019-05-22T23:10:48.597Z,83.70
2019-05-22T23:13:15.537Z,82.00
2019-05-22T23:19:16.751Z,82.00
2019-05-22T23:21:45.109Z,85.50
2019-05-22T23:24:15.851Z,82.40
2019-05-22T23:26:44.375Z,83.90
2019-05-22T23:29:12.150Z,82.50
2019-05-22T23:31:39.879Z,82.90
2019-05-22T23:34:07.642Z,83.20
2019-05-22T23:36:35.084Z,82.90
2019-05-22T23:39:03.798Z,83.50
2019-05-22T23:41:32.165Z,82.80
2019-05-22T23:43:59.588Z,82.90
2019-05-22T23:46:28.016Z,83.10
2019-05-22T23:48:54.952Z,83.20
2019-05-22T23:51:23.075Z,83.30
2019-05-22T23:53:50.210Z,83.90
2019-05-22T23:56:17.148Z,84.20
2019-05-22T23:58:52.581Z,83.80
